sensor_id;sensor_type;location;lat;lon;timestamp;pressure;altitude;pressure_sealevel;temperature;humidity
79138;BME280;68544;45.566;10.238;2023-12-14T00:00:04;98598.28;;;10.45;83.39
79138;BME280;68544;45.566;10.238;2023-12-14T00:02:30;98588.97;;;10.41;84.34
79138;BME280;68544;45.566;10.238;2023-12-14T00:04:55;98590.91;;;10.34;84.11
79138;BME280;68544;45.566;10.238;2023-12-14T00:07:20;98595.25;;;10.35;84.47
79138;BME280;68544;45.566;10.238;2023-12-14T00:09:46;98595.50;;;10.27;84.22
79138;BME280;68544;45.566;10.238;2023-12-14T00:12:11;98604.50;;;10.21;84.48
79138;BME280;68544;45.566;10.238;2023-12-14T00:14:36;98598.88;;;10.22;84.64
79138;BME280;68544;45.566;10.238;2023-12-14T00:17:01;98596.06;;;10.36;83.27
79138;BME280;68544;45.566;10.238;2023-12-14T00:19:27;98599.47;;;10.24;82.94
79138;BME280;68544;45.566;10.238;2023-12-14T00:21:52;98602.66;;;10.15;82.71
79138;BME280;68544;45.566;10.238;2023-12-14T00:24:17;98603.28;;;10.17;82.87
79138;BME280;68544;45.566;10.238;2023-12-14T00:26:43;98596.66;;;10.13;82.85
79138;BME280;68544;45.566;10.238;2023-12-14T00:29:08;98600.19;;;10.13;83.36
79138;BME280;68544;45.566;10.238;2023-12-14T00:31:33;98601.56;;;9.91;84.12
79138;BME280;68544;45.566;10.238;2023-12-14T00:33:59;98622.06;;;9.99;84.01
79138;BME280;68544;45.566;10.238;2023-12-14T00:36:24;98614.31;;;10.09;82.94
79138;BME280;68544;45.566;10.238;2023-12-14T00:38:49;98633.19;;;10.15;82.42
79138;BME280;68544;45.566;10.238;2023-12-14T00:41:15;98627.59;;;10.04;82.57
79138;BME280;68544;45.566;10.238;2023-12-14T00:43:40;98620.78;;;10.01;82.55
79138;BME280;68544;45.566;10.238;2023-12-14T00:46:05;98625.13;;;10.02;82.64
79138;BME280;68544;45.566;10.238;2023-12-14T00:48:31;98627.53;;;9.86;83.26
79138;BME280;68544;45.566;10.238;2023-12-14T00:50:56;98628.34;;;9.86;83.62
79138;BME280;68544;45.566;10.238;2023-12-14T00:53:21;98630.81;;;9.88;82.81
79138;BME280;68544;45.566;10.238;2023-12-14T00:55:47;98628.81;;;9.77;83.18
79138;BME280;68544;45.566;10.238;2023-12-14T00:58:13;98641.59;;;9.88;82.72
79138;BME280;68544;45.566;10.238;2023-12-14T01:00:38;98641.88;;;9.80;82.64
79138;BME280;68544;45.566;10.238;2023-12-14T01:03:04;98646.19;;;9.81;82.18
79138;BME280;68544;45.566;10.238;2023-12-14T01:05:29;98640.69;;;9.69;81.06
79138;BME280;68544;45.566;10.238;2023-12-14T01:07:54;98638.91;;;9.50;80.86
79138;BME280;68544;45.566;10.238;2023-12-14T01:10:20;98657.91;;;9.62;80.69
79138;BME280;68544;45.566;10.238;2023-12-14T01:12:45;98654.84;;;9.45;80.90
79138;BME280;68544;45.566;10.238;2023-12-14T01:15:11;98663.53;;;9.53;80.51
79138;BME280;68544;45.566;10.238;2023-12-14T01:17:36;98666.44;;;9.59;80.31
79138;BME280;68544;45.566;10.238;2023-12-14T01:20:05;98669.72;;;9.61;79.86
79138;BME280;68544;45.566;10.238;2023-12-14T01:22:31;98671.97;;;9.64;79.36
79138;BME280;68544;45.566;10.238;2023-12-14T01:24:56;98672.88;;;9.44;79.66
79138;BME280;68544;45.566;10.238;2023-12-14T01:27:21;98684.13;;;9.28;81.06
79138;BME280;68544;45.566;10.238;2023-12-14T01:29:47;98687.41;;;9.43;80.66
79138;BME280;68544;45.566;10.238;2023-12-14T01:32:12;98689.47;;;9.48;80.65
79138;BME280;68544;45.566;10.238;2023-12-14T01:34:37;98692.16;;;9.48;80.37
79138;BME280;68544;45.566;10.238;2023-12-14T01:37:02;98695.53;;;9.30;80.77
79138;BME280;68544;45.566;10.238;2023-12-14T01:39:28;98699.03;;;9.37;80.38
79138;BME280;68544;45.566;10.238;2023-12-14T01:41:53;98700.03;;;9.43;80.65
79138;BME280;68544;45.566;10.238;2023-12-14T01:44:18;98699.63;;;9.46;80.15
79138;BME280;68544;45.566;10.238;2023-12-14T01:46:44;98698.56;;;9.53;79.84
79138;BME280;68544;45.566;10.238;2023-12-14T01:49:09;98695.72;;;9.35;80.31
79138;BME280;68544;45.566;10.238;2023-12-14T01:51:34;98714.72;;;9.60;80.09
79138;BME280;68544;45.566;10.238;2023-12-14T01:54:00;98712.16;;;9.72;79.45
79138;BME280;68544;45.566;10.238;2023-12-14T01:56:25;98710.56;;;9.64;79.97
79138;BME280;68544;45.566;10.238;2023-12-14T01:58:51;98717.13;;;9.75;79.73
79138;BME280;68544;45.566;10.238;2023-12-14T02:01:31;98723.75;;;9.79;79.78
79138;BME280;68544;45.566;10.238;2023-12-14T02:04:02;98725.00;;;9.76;80.08
79138;BME280;68544;45.566;10.238;2023-12-14T02:06:27;98715.53;;;9.61;80.22
79138;BME280;68544;45.566;10.238;2023-12-14T02:08:52;98729.63;;;9.69;79.68
79138;BME280;68544;45.566;10.238;2023-12-14T02:11:18;98725.06;;;9.63;79.88
79138;BME280;68544;45.566;10.238;2023-12-14T02:13:43;98724.03;;;9.57;79.75
79138;BME280;68544;45.566;10.238;2023-12-14T02:16:09;98735.41;;;9.73;79.59
79138;BME280;68544;45.566;10.238;2023-12-14T02:18:34;98721.91;;;9.73;79.07
79138;BME280;68544;45.566;10.238;2023-12-14T02:20:59;98729.22;;;9.59;79.41
79138;BME280;68544;45.566;10.238;2023-12-14T02:23:25;98734.16;;;9.69;80.02
79138;BME280;68544;45.566;10.238;2023-12-14T02:25:50;98736.19;;;9.86;82.59
79138;BME280;68544;45.566;10.238;2023-12-14T02:28:15;98739.13;;;9.72;81.63
79138;BME280;68544;45.566;10.238;2023-12-14T02:30:41;98728.94;;;9.80;81.62
79138;BME280;68544;45.566;10.238;2023-12-14T02:33:06;98735.78;;;9.76;82.76
79138;BME280;68544;45.566;10.238;2023-12-14T02:35:31;98732.47;;;9.81;82.92
79138;BME280;68544;45.566;10.238;2023-12-14T02:37:57;98744.94;;;9.75;83.49
79138;BME280;68544;45.566;10.238;2023-12-14T02:40:22;98744.91;;;9.82;83.51
79138;BME280;68544;45.566;10.238;2023-12-14T02:42:47;98749.19;;;9.96;83.30
79138;BME280;68544;45.566;10.238;2023-12-14T02:45:13;98745.31;;;9.85;83.62
79138;BME280;68544;45.566;10.238;2023-12-14T02:47:38;98748.66;;;9.68;85.31
79138;BME280;68544;45.566;10.238;2023-12-14T02:50:04;98750.75;;;9.59;85.65
79138;BME280;68544;45.566;10.238;2023-12-14T02:52:29;98758.63;;;9.74;85.44
79138;BME280;68544;45.566;10.238;2023-12-14T02:54:55;98740.59;;;9.68;85.13
79138;BME280;68544;45.566;10.238;2023-12-14T02:57:20;98756.47;;;9.89;84.70
79138;BME280;68544;45.566;10.238;2023-12-14T02:59:45;98756.91;;;9.86;84.98
79138;BME280;68544;45.566;10.238;2023-12-14T03:02:11;98764.75;;;9.94;84.98
79138;BME280;68544;45.566;10.238;2023-12-14T03:04:39;98760.22;;;9.88;85.56
79138;BME280;68544;45.566;10.238;2023-12-14T03:07:05;98779.22;;;10.06;85.01
79138;BME280;68544;45.566;10.238;2023-12-14T03:09:30;98780.44;;;10.10;84.23
79138;BME280;68544;45.566;10.238;2023-12-14T03:11:56;98779.22;;;10.19;83.95
79138;BME280;68544;45.566;10.238;2023-12-14T03:14:22;98779.41;;;10.24;83.51
79138;BME280;68544;45.566;10.238;2023-12-14T03:16:47;98782.50;;;10.21;83.48
79138;BME280;68544;45.566;10.238;2023-12-14T03:19:13;98782.94;;;10.18;84.19
79138;BME280;68544;45.566;10.238;2023-12-14T03:21:40;98784.22;;;10.09;84.99
79138;BME280;68544;45.566;10.238;2023-12-14T03:24:05;98771.38;;;10.04;84.87
79138;BME280;68544;45.566;10.238;2023-12-14T03:26:30;98789.63;;;10.02;85.13
79138;BME280;68544;45.566;10.238;2023-12-14T03:28:56;98786.28;;;10.07;85.19
79138;BME280;68544;45.566;10.238;2023-12-14T03:31:21;98790.91;;;9.87;85.08
79138;BME280;68544;45.566;10.238;2023-12-14T03:33:46;98797.13;;;9.94;86.65
79138;BME280;68544;45.566;10.238;2023-12-14T03:36:12;98793.47;;;9.69;86.69
79138;BME280;68544;45.566;10.238;2023-12-14T03:38:37;98794.94;;;9.45;87.14
79138;BME280;68544;45.566;10.238;2023-12-14T03:41:03;98787.44;;;9.80;85.95
79138;BME280;68544;45.566;10.238;2023-12-14T03:43:28;98792.34;;;9.96;84.03
79138;BME280;68544;45.566;10.238;2023-12-14T03:45:53;98797.50;;;10.04;83.02
79138;BME280;68544;45.566;10.238;2023-12-14T03:48:18;98792.28;;;10.09;82.24
79138;BME280;68544;45.566;10.238;2023-12-14T03:50:44;98792.09;;;10.10;82.13
79138;BME280;68544;45.566;10.238;2023-12-14T03:53:09;98797.69;;;10.09;82.22
79138;BME280;68544;45.566;10.238;2023-12-14T03:55:35;98797.72;;;9.96;82.43
79138;BME280;68544;45.566;10.238;2023-12-14T03:58:00;98799.94;;;9.48;84.54
79138;BME280;68544;45.566;10.238;2023-12-14T04:00:26;98795.94;;;9.77;84.55
79138;BME280;68544;45.566;10.238;2023-12-14T04:02:51;98806.09;;;9.68;84.88
79138;BME280;68544;45.566;10.238;2023-12-14T04:05:17;98811.50;;;9.68;85.18
79138;BME280;68544;45.566;10.238;2023-12-14T04:07:42;98799.47;;;9.64;84.60
79138;BME280;68544;45.566;10.238;2023-12-14T04:10:12;98813.78;;;9.78;84.18
79138;BME280;68544;45.566;10.238;2023-12-14T04:12:38;98813.34;;;9.74;84.00
79138;BME280;68544;45.566;10.238;2023-12-14T04:15:05;98819.91;;;9.98;82.93
79138;BME280;68544;45.566;10.238;2023-12-14T04:17:31;98818.66;;;10.07;82.25
79138;BME280;68544;45.566;10.238;2023-12-14T04:19:57;98822.03;;;9.83;83.36
79138;BME280;68544;45.566;10.238;2023-12-14T04:22:22;98823.84;;;9.95;82.91
79138;BME280;68544;45.566;10.238;2023-12-14T04:24:48;98830.75;;;9.78;82.09
79138;BME280;68544;45.566;10.238;2023-12-14T04:27:14;98829.88;;;9.91;82.31
79138;BME280;68544;45.566;10.238;2023-12-14T04:29:40;98837.09;;;10.10;81.19
79138;BME280;68544;45.566;10.238;2023-12-14T04:32:05;98829.84;;;10.17;80.58
79138;BME280;68544;45.566;10.238;2023-12-14T04:34:31;98831.94;;;10.02;81.42
79138;BME280;68544;45.566;10.238;2023-12-14T04:36:56;98831.53;;;10.05;81.67
79138;BME280;68544;45.566;10.238;2023-12-14T04:39:23;98836.47;;;10.08;81.69
79138;BME280;68544;45.566;10.238;2023-12-14T04:41:50;98840.63;;;10.04;81.76
79138;BME280;68544;45.566;10.238;2023-12-14T04:44:15;98845.88;;;9.99;81.61
79138;BME280;68544;45.566;10.238;2023-12-14T04:46:40;98858.13;;;9.82;82.07
79138;BME280;68544;45.566;10.238;2023-12-14T04:49:06;98854.38;;;9.83;81.73
79138;BME280;68544;45.566;10.238;2023-12-14T04:51:31;98860.78;;;9.95;81.50
79138;BME280;68544;45.566;10.238;2023-12-14T04:53:57;98857.06;;;9.96;81.01
79138;BME280;68544;45.566;10.238;2023-12-14T04:56:22;98867.59;;;10.04;80.98
79138;BME280;68544;45.566;10.238;2023-12-14T04:58:48;98863.47;;;10.01;80.72
79138;BME280;68544;45.566;10.238;2023-12-14T05:01:13;98852.66;;;10.08;80.05
79138;BME280;68544;45.566;10.238;2023-12-14T05:03:38;98863.06;;;9.98;80.26
79138;BME280;68544;45.566;10.238;2023-12-14T05:06:04;98864.28;;;10.15;79.48
79138;BME280;68544;45.566;10.238;2023-12-14T05:08:29;98859.75;;;9.96;80.01
79138;BME280;68544;45.566;10.238;2023-12-14T05:10:54;98866.38;;;10.06;79.40
79138;BME280;68544;45.566;10.238;2023-12-14T05:13:20;98870.09;;;10.12;78.72
79138;BME280;68544;45.566;10.238;2023-12-14T05:15:45;98873.03;;;9.91;79.47
79138;BME280;68544;45.566;10.238;2023-12-14T05:18:10;98886.13;;;9.81;80.64
79138;BME280;68544;45.566;10.238;2023-12-14T05:20:36;98885.72;;;9.64;81.58
79138;BME280;68544;45.566;10.238;2023-12-14T05:23:01;98884.69;;;9.65;81.90
79138;BME280;68544;45.566;10.238;2023-12-14T05:25:27;98887.19;;;9.67;81.54
79138;BME280;68544;45.566;10.238;2023-12-14T05:27:52;98903.75;;;9.70;81.38
79138;BME280;68544;45.566;10.238;2023-12-14T05:30:17;98874.31;;;9.42;81.96
79138;BME280;68544;45.566;10.238;2023-12-14T05:32:43;98918.91;;;9.78;81.03
79138;BME280;68544;45.566;10.238;2023-12-14T05:35:09;98907.06;;;9.79;80.46
79138;BME280;68544;45.566;10.238;2023-12-14T05:37:35;98909.13;;;9.70;80.58
79138;BME280;68544;45.566;10.238;2023-12-14T05:40:00;98909.56;;;9.54;80.94
79138;BME280;68544;45.566;10.238;2023-12-14T05:42:26;98914.75;;;9.62;81.01
79138;BME280;68544;45.566;10.238;2023-12-14T05:44:51;98920.75;;;9.44;81.74
79138;BME280;68544;45.566;10.238;2023-12-14T05:47:17;98934.03;;;9.52;81.87
79138;BME280;68544;45.566;10.238;2023-12-14T05:49:43;98931.91;;;9.15;82.58
79138;BME280;68544;45.566;10.238;2023-12-14T05:52:08;98938.38;;;9.27;82.85
79138;BME280;68544;45.566;10.238;2023-12-14T05:54:36;98951.41;;;9.37;82.39
79138;BME280;68544;45.566;10.238;2023-12-14T05:57:01;98949.56;;;9.44;81.31
79138;BME280;68544;45.566;10.238;2023-12-14T05:59:26;98954.75;;;9.45;80.56
79138;BME280;68544;45.566;10.238;2023-12-14T06:01:56;98948.50;;;9.38;80.75
79138;BME280;68544;45.566;10.238;2023-12-14T06:04:22;98946.81;;;9.18;81.21
79138;BME280;68544;45.566;10.238;2023-12-14T06:06:47;98963.22;;;9.29;81.22
79138;BME280;68544;45.566;10.238;2023-12-14T06:09:12;98962.59;;;9.34;80.76
79138;BME280;68544;45.566;10.238;2023-12-14T06:11:38;98966.72;;;9.17;80.98
79138;BME280;68544;45.566;10.238;2023-12-14T06:14:03;98964.63;;;9.12;81.53
79138;BME280;68544;45.566;10.238;2023-12-14T06:16:28;98971.22;;;9.03;81.30
79138;BME280;68544;45.566;10.238;2023-12-14T06:18:53;98971.22;;;9.03;80.92
79138;BME280;68544;45.566;10.238;2023-12-14T06:21:19;98971.00;;;8.98;81.21
79138;BME280;68544;45.566;10.238;2023-12-14T06:23:44;98979.69;;;9.00;81.15
79138;BME280;68544;45.566;10.238;2023-12-14T06:26:09;98979.19;;;8.77;80.82
79138;BME280;68544;45.566;10.238;2023-12-14T06:28:35;98986.91;;;8.87;81.16
79138;BME280;68544;45.566;10.238;2023-12-14T06:31:00;98978.28;;;8.98;80.41
79138;BME280;68544;45.566;10.238;2023-12-14T06:33:26;98987.16;;;8.92;80.20
79138;BME280;68544;45.566;10.238;2023-12-14T06:35:52;98987.31;;;8.84;80.71
79138;BME280;68544;45.566;10.238;2023-12-14T06:38:17;98994.09;;;8.73;80.82
79138;BME280;68544;45.566;10.238;2023-12-14T06:40:42;98996.41;;;8.76;80.79
79138;BME280;68544;45.566;10.238;2023-12-14T06:43:08;99000.53;;;8.72;81.07
79138;BME280;68544;45.566;10.238;2023-12-14T06:45:36;99005.69;;;8.73;80.98
79138;BME280;68544;45.566;10.238;2023-12-14T06:48:01;98998.69;;;8.79;80.33
79138;BME280;68544;45.566;10.238;2023-12-14T06:50:28;98998.03;;;8.77;80.00
79138;BME280;68544;45.566;10.238;2023-12-14T06:52:53;99005.97;;;8.85;79.65
79138;BME280;68544;45.566;10.238;2023-12-14T06:55:19;99012.34;;;8.77;79.94
79138;BME280;68544;45.566;10.238;2023-12-14T06:57:44;99018.72;;;8.70;80.33
79138;BME280;68544;45.566;10.238;2023-12-14T07:00:14;99013.34;;;8.70;79.69
79138;BME280;68544;45.566;10.238;2023-12-14T07:02:39;99020.06;;;8.53;79.91
79138;BME280;68544;45.566;10.238;2023-12-14T07:05:05;99026.50;;;8.58;79.92
79138;BME280;68544;45.566;10.238;2023-12-14T07:07:30;99028.16;;;8.53;80.20
79138;BME280;68544;45.566;10.238;2023-12-14T07:09:55;99035.19;;;8.54;80.72
79138;BME280;68544;45.566;10.238;2023-12-14T07:12:21;99035.59;;;8.51;80.06
79138;BME280;68544;45.566;10.238;2023-12-14T07:14:46;99042.88;;;8.57;79.41
79138;BME280;68544;45.566;10.238;2023-12-14T07:17:11;99048.78;;;8.46;79.74
79138;BME280;68544;45.566;10.238;2023-12-14T07:19:36;99036.00;;;8.54;79.79
79138;BME280;68544;45.566;10.238;2023-12-14T07:22:02;99047.25;;;8.64;79.60
79138;BME280;68544;45.566;10.238;2023-12-14T07:24:27;99049.38;;;8.75;79.36
79138;BME280;68544;45.566;10.238;2023-12-14T07:26:53;99052.13;;;8.82;78.98
79138;BME280;68544;45.566;10.238;2023-12-14T07:29:18;99015.31;;;8.55;79.15
79138;BME280;68544;45.566;10.238;2023-12-14T07:31:43;99068.06;;;8.84;78.88
79138;BME280;68544;45.566;10.238;2023-12-14T07:34:09;99075.75;;;8.87;78.57
79138;BME280;68544;45.566;10.238;2023-12-14T07:36:34;99063.09;;;8.81;78.19
79138;BME280;68544;45.566;10.238;2023-12-14T07:38:59;99069.31;;;8.81;78.40
79138;BME280;68544;45.566;10.238;2023-12-14T07:41:26;99085.75;;;8.65;79.21
79138;BME280;68544;45.566;10.238;2023-12-14T07:43:55;99094.03;;;8.63;79.37
79138;BME280;68544;45.566;10.238;2023-12-14T07:46:20;99099.84;;;8.67;79.06
79138;BME280;68544;45.566;10.238;2023-12-14T07:48:46;99104.03;;;8.76;78.55
79138;BME280;68544;45.566;10.238;2023-12-14T07:51:11;99111.28;;;8.75;78.21
79138;BME280;68544;45.566;10.238;2023-12-14T07:53:37;99110.75;;;8.87;78.21
79138;BME280;68544;45.566;10.238;2023-12-14T07:56:02;99108.63;;;8.82;78.27
79138;BME280;68544;45.566;10.238;2023-12-14T07:58:28;99103.25;;;8.82;78.87
79138;BME280;68544;45.566;10.238;2023-12-14T08:00:53;99109.09;;;8.92;78.72
79138;BME280;68544;45.566;10.238;2023-12-14T08:03:18;99110.84;;;9.06;78.74
79138;BME280;68544;45.566;10.238;2023-12-14T08:05:44;99119.94;;;9.05;78.74
79138;BME280;68544;45.566;10.238;2023-12-14T08:08:09;99135.31;;;9.11;78.02
79138;BME280;68544;45.566;10.238;2023-12-14T08:10:34;99122.19;;;9.42;77.17
79138;BME280;68544;45.566;10.238;2023-12-14T08:13:00;99132.63;;;9.59;77.04
79138;BME280;68544;45.566;10.238;2023-12-14T08:15:25;99142.97;;;9.55;77.20
79138;BME280;68544;45.566;10.238;2023-12-14T08:17:50;99138.50;;;9.82;76.38
79138;BME280;68544;45.566;10.238;2023-12-14T08:20:16;99135.41;;;9.98;74.83
79138;BME280;68544;45.566;10.238;2023-12-14T08:22:41;99140.22;;;10.09;74.26
79138;BME280;68544;45.566;10.238;2023-12-14T08:25:11;99143.75;;;10.09;74.71
79138;BME280;68544;45.566;10.238;2023-12-14T08:27:37;99134.66;;;10.17;74.50
79138;BME280;68544;45.566;10.238;2023-12-14T08:30:02;99148.56;;;10.40;73.90
79138;BME280;68544;45.566;10.238;2023-12-14T08:32:28;99152.09;;;10.73;72.73
79138;BME280;68544;45.566;10.238;2023-12-14T08:34:53;99151.44;;;10.97;71.96
79138;BME280;68544;45.566;10.238;2023-12-14T08:37:18;99160.16;;;11.13;71.40
79138;BME280;68544;45.566;10.238;2023-12-14T08:39:44;99177.38;;;11.18;70.48
79138;BME280;68544;45.566;10.238;2023-12-14T08:42:09;99167.19;;;11.27;69.00
79138;BME280;68544;45.566;10.238;2023-12-14T08:44:39;99175.47;;;11.32;68.61
79138;BME280;68544;45.566;10.238;2023-12-14T08:47:04;99171.94;;;11.38;68.37
79138;BME280;68544;45.566;10.238;2023-12-14T08:49:30;99177.00;;;11.65;67.96
79138;BME280;68544;45.566;10.238;2023-12-14T08:51:55;99170.59;;;11.66;67.89
79138;BME280;68544;45.566;10.238;2023-12-14T08:54:21;99185.28;;;11.90;67.75
79138;BME280;68544;45.566;10.238;2023-12-14T08:56:46;99191.91;;;11.94;67.88
79138;BME280;68544;45.566;10.238;2023-12-14T08:59:11;99193.41;;;12.21;66.49
79138;BME280;68544;45.566;10.238;2023-12-14T09:01:38;99200.66;;;12.27;65.71
79138;BME280;68544;45.566;10.238;2023-12-14T09:04:04;99200.19;;;12.68;64.81
79138;BME280;68544;45.566;10.238;2023-12-14T09:06:29;99197.34;;;12.56;64.48
79138;BME280;68544;45.566;10.238;2023-12-14T09:08:54;99187.72;;;12.85;65.09
79138;BME280;68544;45.566;10.238;2023-12-14T09:11:20;99197.47;;;12.93;64.05
79138;BME280;68544;45.566;10.238;2023-12-14T09:13:45;99200.22;;;13.11;63.73
79138;BME280;68544;45.566;10.238;2023-12-14T09:16:10;99203.44;;;13.26;63.33
79138;BME280;68544;45.566;10.238;2023-12-14T09:18:36;99203.56;;;13.13;62.65
79138;BME280;68544;45.566;10.238;2023-12-14T09:21:01;99184.56;;;13.13;62.43
79138;BME280;68544;45.566;10.238;2023-12-14T09:23:27;99216.63;;;13.77;61.68
79138;BME280;68544;45.566;10.238;2023-12-14T09:25:52;99221.50;;;14.04;61.24
79138;BME280;68544;45.566;10.238;2023-12-14T09:28:17;99221.63;;;14.27;60.14
79138;BME280;68544;45.566;10.238;2023-12-14T09:30:43;99235.28;;;14.21;59.85
79138;BME280;68544;45.566;10.238;2023-12-14T09:33:09;99226.44;;;14.25;57.92
79138;BME280;68544;45.566;10.238;2023-12-14T09:35:35;99235.69;;;14.54;57.72
79138;BME280;68544;45.566;10.238;2023-12-14T09:38:04;99251.47;;;14.87;56.67
79138;BME280;68544;45.566;10.238;2023-12-14T09:40:30;99243.94;;;15.00;55.60
79138;BME280;68544;45.566;10.238;2023-12-14T09:42:56;99241.47;;;15.11;54.85
79138;BME280;68544;45.566;10.238;2023-12-14T09:45:24;99251.75;;;15.09;54.88
79138;BME280;68544;45.566;10.238;2023-12-14T09:47:53;99245.84;;;15.23;55.14
79138;BME280;68544;45.566;10.238;2023-12-14T09:50:20;99248.47;;;15.41;55.17
79138;BME280;68544;45.566;10.238;2023-12-14T09:52:45;99253.00;;;15.47;53.68
79138;BME280;68544;45.566;10.238;2023-12-14T09:55:14;99251.81;;;15.66;53.60
79138;BME280;68544;45.566;10.238;2023-12-14T09:57:39;99262.69;;;15.66;53.36
79138;BME280;68544;45.566;10.238;2023-12-14T10:00:05;99259.63;;;15.51;54.26
79138;BME280;68544;45.566;10.238;2023-12-14T10:02:35;99258.19;;;15.60;54.29
79138;BME280;68544;45.566;10.238;2023-12-14T10:05:00;99263.88;;;15.70;54.51
79138;BME280;68544;45.566;10.238;2023-12-14T10:07:26;99264.28;;;15.91;54.00
79138;BME280;68544;45.566;10.238;2023-12-14T10:09:51;99260.16;;;16.00;53.32
79138;BME280;68544;45.566;10.238;2023-12-14T10:12:18;99261.25;;;16.27;52.37
79138;BME280;68544;45.566;10.238;2023-12-14T10:14:47;99258.91;;;16.47;52.06
79138;BME280;68544;45.566;10.238;2023-12-14T10:17:24;99265.97;;;16.71;51.03
79138;BME280;68544;45.566;10.238;2023-12-14T10:19:56;99263.97;;;16.83;51.03
79138;BME280;68544;45.566;10.238;2023-12-14T10:22:22;99262.06;;;17.12;50.97
79138;BME280;68544;45.566;10.238;2023-12-14T10:24:47;99267.81;;;17.15;50.20
79138;BME280;68544;45.566;10.238;2023-12-14T10:27:17;99274.53;;;17.24;49.46
79138;BME280;68544;45.566;10.238;2023-12-14T10:29:42;99271.66;;;17.86;49.86
79138;BME280;68544;45.566;10.238;2023-12-14T10:32:10;99272.94;;;18.43;48.60
79138;BME280;68544;45.566;10.238;2023-12-14T10:34:37;99275.31;;;19.78;46.07
79138;BME280;68544;45.566;10.238;2023-12-14T10:37:05;99270.84;;;21.81;40.42
79138;BME280;68544;45.566;10.238;2023-12-14T10:39:31;99269.16;;;23.18;37.08
79138;BME280;68544;45.566;10.238;2023-12-14T10:42:02;99278.66;;;24.27;34.13
79138;BME280;68544;45.566;10.238;2023-12-14T10:44:30;99282.25;;;24.88;32.42
79138;BME280;68544;45.566;10.238;2023-12-14T10:46:58;99288.00;;;25.48;31.38
79138;BME280;68544;45.566;10.238;2023-12-14T10:49:28;99288.06;;;26.21;29.85
79138;BME280;68544;45.566;10.238;2023-12-14T10:51:55;99288.47;;;26.69;28.84
79138;BME280;68544;45.566;10.238;2023-12-14T10:54:23;99292.44;;;25.95;29.63
79138;BME280;68544;45.566;10.238;2023-12-14T10:56:53;99303.22;;;24.23;32.34
79138;BME280;68544;45.566;10.238;2023-12-14T10:59:19;99308.22;;;23.25;34.78
79138;BME280;68544;45.566;10.238;2023-12-14T11:01:44;99312.13;;;22.75;35.87
79138;BME280;68544;45.566;10.238;2023-12-14T11:04:10;99311.28;;;21.86;37.96
79138;BME280;68544;45.566;10.238;2023-12-14T11:06:39;99303.34;;;21.84;37.54
79138;BME280;68544;45.566;10.238;2023-12-14T11:09:06;99311.00;;;21.92;37.96
79138;BME280;68544;45.566;10.238;2023-12-14T11:11:56;99321.19;;;21.67;39.05
79138;BME280;68544;45.566;10.238;2023-12-14T11:14:24;99311.31;;;21.56;39.93
79138;BME280;68544;45.566;10.238;2023-12-14T11:16:54;99293.41;;;21.08;40.80
79138;BME280;68544;45.566;10.238;2023-12-14T11:19:23;99325.84;;;21.11;41.08
79138;BME280;68544;45.566;10.238;2023-12-14T11:24:34;99310.22;;;20.44;42.65
79138;BME280;68544;45.566;10.238;2023-12-14T11:27:04;99328.97;;;20.16;43.49
79138;BME280;68544;45.566;10.238;2023-12-14T11:29:31;99297.91;;;20.00;43.75
79138;BME280;68544;45.566;10.238;2023-12-14T11:31:57;99326.69;;;20.39;44.03
79138;BME280;68544;45.566;10.238;2023-12-14T11:34:24;99318.75;;;20.48;43.42
79138;BME280;68544;45.566;10.238;2023-12-14T11:36:50;99328.00;;;19.90;43.22
79138;BME280;68544;45.566;10.238;2023-12-14T11:39:15;99330.06;;;20.10;44.47
79138;BME280;68544;45.566;10.238;2023-12-14T11:41:40;99305.41;;;20.15;43.32
79138;BME280;68544;45.566;10.238;2023-12-14T11:44:06;99315.66;;;20.34;43.72
79138;BME280;68544;45.566;10.238;2023-12-14T11:46:32;99320.09;;;20.40;43.37
79138;BME280;68544;45.566;10.238;2023-12-14T11:48:57;99339.13;;;20.15;42.87
79138;BME280;68544;45.566;10.238;2023-12-14T11:51:23;99319.00;;;20.41;43.95
79138;BME280;68544;45.566;10.238;2023-12-14T11:53:51;99330.28;;;20.50;43.46
79138;BME280;68544;45.566;10.238;2023-12-14T11:56:20;99331.59;;;20.37;42.04
79138;BME280;68544;45.566;10.238;2023-12-14T11:58:48;99332.72;;;20.41;43.24
79138;BME280;68544;45.566;10.238;2023-12-14T12:01:14;99325.72;;;20.81;42.98
79138;BME280;68544;45.566;10.238;2023-12-14T12:03:40;99328.69;;;20.64;41.98
79138;BME280;68544;45.566;10.238;2023-12-14T12:06:05;99325.69;;;20.71;42.23
79138;BME280;68544;45.566;10.238;2023-12-14T12:08:30;99329.03;;;20.93;42.35
79138;BME280;68544;45.566;10.238;2023-12-14T12:10:56;99330.44;;;20.90;42.46
79138;BME280;68544;45.566;10.238;2023-12-14T12:13:22;99337.25;;;20.78;40.99
79138;BME280;68544;45.566;10.238;2023-12-14T12:15:47;99313.91;;;20.75;41.03
79138;BME280;68544;45.566;10.238;2023-12-14T12:18:15;99335.63;;;20.87;40.17
79138;BME280;68544;45.566;10.238;2023-12-14T12:20:41;99339.03;;;20.47;41.14
79138;BME280;68544;45.566;10.238;2023-12-14T12:23:07;99338.13;;;20.26;40.92
79138;BME280;68544;45.566;10.238;2023-12-14T12:25:32;99344.91;;;20.19;42.09
79138;BME280;68544;45.566;10.238;2023-12-14T12:27:59;99330.28;;;20.55;41.57
79138;BME280;68544;45.566;10.238;2023-12-14T12:30:24;99335.78;;;20.50;41.98
79138;BME280;68544;45.566;10.238;2023-12-14T12:32:50;99331.41;;;20.54;41.51
79138;BME280;68544;45.566;10.238;2023-12-14T12:35:20;99326.88;;;20.28;42.01
79138;BME280;68544;45.566;10.238;2023-12-14T12:37:45;99340.13;;;19.99;43.15
79138;BME280;68544;45.566;10.238;2023-12-14T12:40:11;99333.97;;;19.45;44.34
79138;BME280;68544;45.566;10.238;2023-12-14T12:42:36;99332.09;;;18.98;44.66
79138;BME280;68544;45.566;10.238;2023-12-14T12:45:01;99314.19;;;18.58;45.66
79138;BME280;68544;45.566;10.238;2023-12-14T12:47:27;99330.22;;;18.11;47.32
79138;BME280;68544;45.566;10.238;2023-12-14T12:49:52;99340.47;;;17.66;47.90